createdAt,value
2019-05-01T00:00:21.050Z,20.57
2019-05-01T00:02:59.692Z,22.23
2019-05-01T00:05:35.935Z,22.13
2019-05-01T00:08:05.016Z,23.73
2019-05-01T00:10:34.188Z,24.97
2019-05-01T00:13:02.834Z,22.00
2019-05-01T00:15:33.409Z,24.80
2019-05-01T00:18:02.011Z,22.40
2019-05-01T00:20:30.520Z,21.70
2019-05-01T00:22:59.000Z,22.13
2019-05-01T00:25:27.480Z,25.93
2019-05-01T00:27:56.129Z,22.37
2019-05-01T00:30:29.937Z,24.57
2019-05-01T00:32:56.267Z,22.80
2019-05-01T00:35:24.766Z,24.40
2019-05-01T00:37:53.229Z,23.47
2019-05-01T00:40:21.791Z,20.60
2019-05-01T00:42:50.510Z,22.20
2019-05-01T00:45:19.148Z,22.83
2019-05-01T00:47:47.712Z,24.27
2019-05-01T00:50:16.274Z,25.53
2019-05-01T00:52:44.740Z,27.70
2019-05-01T00:55:31.503Z,25.20
2019-05-01T00:58:01.658Z,23.50
2019-05-01T01:00:42.524Z,24.70
2019-05-01T01:03:02.100Z,27.63
2019-05-01T01:05:30.561Z,24.73
2019-05-01T01:07:59.150Z,27.67
2019-05-01T01:10:27.707Z,26.27
2019-05-01T01:12:57.256Z,26.67
2019-05-01T01:15:25.820Z,28.60
2019-05-01T01:17:54.417Z,25.27
2019-05-01T01:20:22.964Z,28.40
2019-05-01T01:22:51.482Z,28.70
2019-05-01T01:25:19.988Z,28.30
2019-05-01T01:27:48.456Z,27.00
2019-05-01T01:30:17.932Z,25.40
2019-05-01T01:32:46.531Z,26.00
2019-05-01T01:35:15.117Z,26.87
2019-05-01T01:37:43.759Z,26.40
2019-05-01T01:40:12.826Z,27.63
2019-05-01T01:42:42.680Z,27.67
2019-05-01T01:45:18.397Z,26.30
2019-05-01T01:48:05.036Z,29.17
2019-05-01T01:50:33.940Z,26.67
2019-05-01T01:53:02.481Z,29.33
2019-05-01T01:55:31.138Z,28.90
2019-05-01T01:57:59.746Z,27.53
2019-05-01T02:00:29.881Z,32.13
2019-05-01T02:03:00.169Z,29.00
2019-05-01T02:05:30.422Z,27.00
2019-05-01T02:07:59.069Z,28.73
2019-05-01T02:10:27.851Z,28.87
2019-05-01T02:12:58.166Z,27.87
2019-05-01T02:15:27.101Z,28.90
2019-05-01T02:17:55.890Z,26.40
2019-05-01T02:20:24.688Z,28.40
2019-05-01T02:22:53.248Z,29.67
2019-05-01T02:25:22.500Z,31.90
2019-05-01T02:27:52.754Z,29.93
2019-05-01T02:30:22.864Z,28.30
2019-05-01T02:32:53.297Z,29.00
2019-05-01T02:35:25.189Z,30.33
2019-05-01T02:37:54.439Z,30.83
2019-05-01T02:40:37.956Z,30.90
2019-05-01T02:43:09.264Z,30.43
2019-05-01T02:45:39.262Z,28.23
2019-05-01T02:48:09.205Z,30.17
2019-05-01T02:50:40.183Z,31.77
2019-05-01T02:53:09.121Z,29.93
2019-05-01T02:55:39.872Z,33.30
2019-05-01T02:58:10.664Z,31.27
2019-05-01T03:00:39.882Z,28.30
2019-05-01T03:03:09.007Z,31.80
2019-05-01T03:05:37.811Z,29.07
2019-05-01T03:08:06.443Z,30.23
2019-05-01T03:10:35.515Z,30.77
2019-05-01T03:13:04.752Z,32.30
2019-05-01T03:15:35.502Z,28.73
2019-05-01T03:18:14.909Z,31.40
2019-05-01T03:20:54.308Z,31.20
2019-05-01T03:23:24.990Z,29.63
2019-05-01T03:25:54.344Z,30.33
2019-05-01T03:28:22.882Z,27.20
2019-05-01T03:30:51.601Z,29.67
2019-05-01T03:33:20.209Z,29.30
2019-05-01T03:35:48.867Z,32.03
2019-05-01T03:38:18.446Z,29.93
2019-05-01T03:40:47.634Z,32.93
2019-05-01T03:43:16.291Z,29.07
2019-05-01T03:45:44.992Z,29.47
2019-05-01T03:48:13.708Z,29.90
2019-05-01T03:50:46.169Z,29.13
2019-05-01T03:53:13.369Z,31.60
2019-05-01T03:55:42.100Z,30.60
2019-05-01T03:58:10.586Z,29.43
2019-05-01T04:00:40.871Z,28.43
2019-05-01T04:03:26.452Z,28.60
2019-05-01T04:05:55.616Z,27.97
2019-05-01T04:08:24.828Z,27.10
2019-05-01T04:10:54.839Z,28.07
2019-05-01T04:13:24.065Z,32.00
2019-05-01T04:15:54.047Z,28.97
2019-05-01T04:18:23.986Z,29.83
2019-05-01T04:20:52.755Z,28.30
2019-05-01T04:23:21.430Z,29.37
2019-05-01T04:25:50.939Z,29.43
2019-05-01T04:28:33.105Z,33.37
2019-05-01T04:31:09.701Z,26.77
2019-05-01T04:33:39.914Z,29.37
2019-05-01T04:36:13.307Z,28.70
2019-05-01T04:38:42.021Z,29.37
2019-05-01T04:41:10.670Z,28.70
2019-05-01T04:43:39.811Z,30.07
2019-05-01T04:46:08.624Z,30.23
2019-05-01T04:48:37.180Z,30.33
2019-05-01T04:51:05.754Z,30.93
2019-05-01T04:53:35.096Z,28.37
2019-05-01T04:56:04.045Z,28.17
2019-05-01T04:58:32.617Z,31.47
2019-05-01T05:01:01.730Z,28.90
2019-05-01T05:03:30.388Z,31.30
2019-05-01T05:05:59.670Z,27.93
2019-05-01T05:08:28.415Z,28.43
2019-05-01T05:10:58.522Z,32.70
2019-05-01T05:13:28.696Z,28.20
2019-05-01T05:16:08.990Z,30.33
2019-05-01T05:18:38.045Z,30.93
2019-05-01T05:21:06.673Z,33.27
2019-05-01T05:23:35.320Z,28.83
2019-05-01T05:26:04.304Z,31.03
2019-05-01T05:28:34.231Z,30.20
2019-05-01T05:31:03.853Z,29.73
2019-05-01T05:33:36.062Z,31.27
2019-05-01T05:36:05.174Z,32.53
2019-05-01T05:38:36.722Z,31.83
2019-05-01T05:41:06.988Z,34.17
2019-05-01T05:43:36.420Z,34.50
2019-05-01T05:46:06.032Z,35.30
2019-05-01T05:48:34.603Z,36.23
2019-05-01T05:51:15.919Z,40.40
2019-05-01T05:53:54.874Z,42.57
2019-05-01T05:56:28.092Z,43.23
2019-05-01T05:58:59.960Z,39.03
2019-05-01T06:01:31.726Z,40.20
2019-05-01T06:04:04.919Z,31.60
2019-05-01T06:06:37.172Z,37.67
2019-05-01T06:09:08.931Z,34.10
2019-05-01T06:11:51.698Z,29.00
2019-05-01T06:14:39.266Z,35.43
2019-05-01T06:17:09.802Z,30.20
2019-05-01T06:19:40.138Z,40.37
2019-05-01T06:22:11.694Z,37.37
2019-05-01T06:24:42.770Z,38.70
2019-05-01T06:27:13.746Z,39.27
2019-05-01T06:29:43.839Z,33.17
2019-05-01T06:32:12.438Z,35.33
2019-05-01T06:34:41.189Z,40.23
2019-05-01T06:37:09.670Z,34.10
2019-05-01T06:39:42.880Z,33.77
2019-05-01T06:42:15.050Z,39.17
2019-05-01T06:44:44.557Z,26.07
2019-05-01T06:47:21.154Z,36.93
2019-05-01T06:50:01.222Z,31.07
2019-05-01T06:52:30.751Z,28.97
2019-05-01T06:54:59.609Z,38.00
2019-05-01T06:57:29.730Z,37.60
2019-05-01T07:00:03.125Z,33.93
2019-05-01T07:02:34.960Z,38.23
2019-05-01T07:05:01.946Z,28.93
2019-05-01T07:07:32.441Z,40.50
2019-05-01T07:10:02.229Z,40.07
2019-05-01T07:12:32.351Z,41.47
2019-05-01T07:15:02.459Z,40.10
2019-05-01T07:17:31.067Z,36.93
2019-05-01T07:20:04.806Z,36.83
2019-05-01T07:22:37.070Z,37.50
2019-05-01T07:25:05.302Z,35.00
2019-05-01T07:27:34.009Z,35.03
2019-05-01T07:30:04.189Z,30.70
2019-05-01T07:32:36.384Z,35.50
2019-05-01T07:35:03.944Z,37.80
2019-05-01T07:37:32.728Z,35.30
2019-05-01T07:40:01.709Z,30.77
2019-05-01T07:42:31.963Z,35.53
2019-05-01T07:45:15.953Z,32.73
2019-05-01T07:47:55.748Z,36.73
2019-05-01T07:50:31.570Z,36.07
2019-05-01T07:52:55.313Z,33.77
2019-05-01T07:55:35.996Z,30.43
2019-05-01T07:58:10.340Z,35.47
2019-05-01T08:00:47.884Z,34.60
2019-05-01T08:03:16.498Z,35.83
2019-05-01T08:05:45.433Z,26.43
2019-05-01T08:08:15.256Z,32.50
2019-05-01T08:10:44.193Z,39.93
2019-05-01T08:13:12.742Z,35.23
2019-05-01T08:15:41.237Z,35.47
2019-05-01T08:18:14.081Z,37.17
2019-05-01T08:20:45.800Z,34.27
2019-05-01T08:23:14.489Z,32.47
2019-05-01T08:25:43.084Z,32.17
2019-05-01T08:28:13.328Z,36.37
2019-05-01T08:30:58.437Z,36.07
2019-05-01T08:33:28.610Z,36.70
2019-05-01T08:35:57.102Z,36.37
2019-05-01T08:38:25.617Z,35.00
2019-05-01T08:40:55.468Z,35.40
2019-05-01T08:43:24.470Z,35.93
2019-05-01T08:46:06.760Z,37.97
2019-05-01T08:48:37.719Z,36.50
2019-05-01T08:51:06.357Z,31.13
2019-05-01T08:53:34.917Z,34.20
2019-05-01T08:56:03.410Z,34.93
2019-05-01T08:58:31.897Z,35.00
2019-05-01T09:01:00.500Z,24.70
2019-05-01T09:03:29.058Z,36.60
2019-05-01T09:05:58.991Z,30.27
2019-05-01T09:08:32.099Z,23.27
2019-05-01T09:11:00.256Z,37.70
2019-05-01T09:13:28.207Z,35.20
2019-05-01T09:15:56.704Z,34.33
2019-05-01T09:18:25.365Z,38.77
2019-05-01T09:20:55.540Z,36.90
2019-05-01T09:23:24.109Z,39.73
2019-05-01T09:25:54.322Z,41.80
2019-05-01T09:28:24.644Z,37.67
2019-05-01T09:31:01.599Z,37.37
2019-05-01T09:33:26.254Z,32.27
2019-05-01T09:35:55.630Z,34.17
2019-05-01T09:38:24.317Z,43.00
2019-05-01T09:40:52.982Z,20.40
2019-05-01T09:43:21.765Z,36.17
2019-05-01T09:45:50.248Z,38.43
2019-05-01T09:48:18.976Z,26.40
2019-05-01T09:50:49.286Z,39.30
2019-05-01T09:53:19.564Z,44.80
2019-05-01T09:55:49.730Z,39.03
2019-05-01T09:58:18.196Z,30.60
2019-05-01T10:00:48.751Z,40.07
2019-05-01T10:03:18.170Z,40.20
2019-05-01T10:05:46.918Z,37.97
2019-05-01T10:08:15.388Z,43.60
2019-05-01T10:10:43.915Z,41.47
2019-05-01T10:13:12.393Z,46.40
2019-05-01T10:15:40.889Z,42.97
2019-05-01T10:18:09.371Z,42.77
2019-05-01T10:20:37.906Z,47.30
2019-05-01T10:23:07.870Z,43.58
2019-05-01T10:25:38.294Z,46.30
2019-05-01T10:28:12.752Z,31.57
2019-05-01T10:30:45.185Z,39.38
2019-05-01T10:33:21.373Z,44.95
2019-05-01T10:36:03.564Z,48.73
2019-05-01T10:38:32.223Z,47.20
2019-05-01T10:41:04.296Z,44.63
2019-05-01T10:43:31.289Z,48.23
2019-05-01T10:45:59.769Z,46.37
2019-05-01T10:48:28.374Z,43.00
2019-05-01T10:50:56.960Z,41.37
2019-05-01T10:53:25.488Z,47.38
2019-05-01T10:55:54.035Z,50.93
2019-05-01T10:58:22.605Z,38.83
2019-05-01T11:00:52.893Z,47.33
2019-05-01T11:03:21.468Z,48.00
2019-05-01T11:05:55.980Z,52.70
2019-05-01T11:08:20.312Z,49.75
2019-05-01T11:10:48.876Z,41.00
2019-05-01T11:13:17.411Z,43.17
2019-05-01T11:15:45.966Z,44.10
2019-05-01T11:18:14.543Z,46.30
2019-05-01T11:20:43.105Z,45.40
2019-05-01T11:23:11.695Z,44.27
2019-05-01T11:25:40.359Z,48.42
2019-05-01T11:28:08.902Z,46.28
2019-05-01T11:30:37.477Z,49.25
2019-05-01T11:33:07.671Z,34.90
2019-05-01T11:35:40.515Z,45.45
2019-05-01T11:38:10.667Z,40.35
2019-05-01T11:40:40.784Z,46.93
2019-05-01T11:43:09.285Z,45.67
2019-05-01T11:45:37.836Z,40.70
2019-05-01T11:48:06.464Z,41.02
2019-05-01T11:50:34.974Z,39.23
2019-05-01T11:53:03.657Z,47.27
2019-05-01T11:55:32.219Z,51.80
2019-05-01T11:58:00.782Z,37.17
2019-05-01T12:00:29.396Z,36.80
2019-05-01T12:02:57.893Z,48.75
2019-05-01T12:05:26.457Z,52.25
2019-05-01T12:07:55.078Z,44.33
2019-05-01T12:10:23.619Z,32.93
2019-05-01T12:12:52.276Z,36.77
2019-05-01T12:15:20.826Z,29.85
2019-05-01T12:17:50.642Z,39.55
2019-05-01T12:20:21.162Z,48.28
2019-05-01T12:22:51.494Z,44.75
2019-05-01T12:25:20.018Z,45.90
2019-05-01T12:27:48.693Z,32.08
2019-05-01T12:30:18.402Z,40.98
2019-05-01T12:32:46.895Z,42.98
2019-05-01T12:35:15.536Z,43.58
2019-05-01T12:37:44.263Z,46.08
2019-05-01T12:40:15.634Z,43.05
2019-05-01T12:42:44.325Z,42.70
2019-05-01T12:45:14.102Z,45.38
2019-05-01T12:47:44.348Z,50.17
2019-05-01T12:50:14.076Z,37.53
2019-05-01T12:52:46.991Z,34.00
2019-05-01T12:55:23.121Z,44.15
2019-05-01T12:57:51.781Z,45.25
2019-05-01T13:00:23.347Z,42.62
2019-05-01T13:02:51.867Z,45.12
2019-05-01T13:05:20.413Z,45.43
2019-05-01T13:07:48.922Z,31.73
2019-05-01T13:10:17.478Z,32.95
2019-05-01T13:12:45.978Z,43.17
2019-05-01T13:15:14.609Z,44.58
2019-05-01T13:17:43.158Z,35.70
2019-05-01T13:20:11.779Z,32.67
2019-05-01T13:22:40.284Z,39.43
2019-05-01T13:25:08.996Z,32.93
2019-05-01T13:27:46.233Z,45.40
2019-05-01T13:30:17.766Z,36.55
2019-05-01T13:32:47.940Z,46.48
2019-05-01T13:35:16.493Z,35.38
2019-05-01T13:37:45.038Z,44.08
2019-05-01T13:40:15.085Z,40.65
2019-05-01T13:42:43.707Z,43.45
2019-05-01T13:45:13.129Z,47.43
2019-05-01T13:47:41.696Z,46.75
2019-05-01T13:50:10.711Z,40.45
2019-05-01T13:52:39.184Z,46.00
2019-05-01T13:55:07.853Z,43.70
2019-05-01T13:57:36.369Z,47.70
2019-05-01T14:00:06.671Z,38.90
2019-05-01T14:02:35.204Z,36.45
2019-05-01T14:05:05.093Z,38.10
2019-05-01T14:07:33.680Z,42.93
2019-05-01T14:10:02.225Z,45.12
2019-05-01T14:12:30.710Z,48.17
2019-05-01T14:14:59.217Z,52.03
2019-05-01T14:17:27.825Z,56.77
2019-05-01T14:20:00.403Z,45.23
2019-05-01T14:22:36.545Z,47.83
2019-05-01T14:25:10.581Z,38.45
2019-05-01T14:27:39.072Z,43.95
2019-05-01T14:30:10.364Z,56.42
2019-05-01T14:32:38.946Z,56.40
2019-05-01T14:35:11.424Z,33.65
2019-05-01T14:37:39.978Z,49.90
2019-05-01T14:40:09.101Z,45.98
2019-05-01T14:42:37.829Z,45.70
2019-05-01T14:45:08.673Z,33.08
2019-05-01T14:47:37.155Z,43.75
2019-05-01T14:50:06.898Z,52.23
2019-05-01T14:52:35.557Z,44.13
2019-05-01T14:55:06.752Z,52.15
2019-05-01T14:57:35.456Z,46.40
2019-05-01T15:00:06.321Z,47.17
2019-05-01T15:02:34.859Z,34.48
2019-05-01T15:05:04.659Z,39.30
2019-05-01T15:07:43.334Z,53.93
2019-05-01T15:10:06.518Z,49.88
2019-05-01T15:12:35.101Z,53.28
2019-05-01T15:15:06.226Z,52.67
2019-05-01T15:17:42.290Z,49.70
2019-05-01T15:20:10.845Z,50.25
2019-05-01T15:22:39.329Z,64.30
2019-05-01T15:25:07.980Z,56.80
2019-05-01T15:27:36.465Z,67.20
2019-05-01T15:30:07.263Z,71.05
2019-05-01T15:32:35.813Z,57.48
2019-05-01T15:35:05.732Z,58.55
2019-05-01T15:37:35.811Z,67.03
2019-05-01T15:40:07.879Z,63.85
2019-05-01T15:42:40.740Z,63.33
2019-05-01T15:45:09.830Z,59.13
2019-05-01T15:47:38.497Z,68.40
2019-05-01T15:50:08.047Z,54.50
2019-05-01T15:52:36.629Z,68.53
2019-05-01T15:55:08.424Z,59.55
2019-05-01T15:57:37.112Z,59.45
2019-05-01T16:00:08.274Z,69.37
2019-05-01T16:02:36.982Z,63.28
2019-05-01T16:05:07.202Z,70.20
2019-05-01T16:07:35.705Z,72.22
2019-05-01T16:10:10.265Z,62.45
2019-05-01T16:12:40.575Z,74.82
2019-05-01T16:15:11.419Z,68.25
2019-05-01T16:17:39.992Z,73.75
2019-05-01T16:20:08.620Z,59.18
2019-05-01T16:22:37.170Z,69.07
2019-05-01T16:25:07.484Z,70.92
2019-05-01T16:27:36.047Z,70.00
2019-05-01T16:30:06.149Z,58.78
2019-05-01T16:32:34.700Z,69.32
2019-05-01T16:35:03.580Z,61.65
2019-05-01T16:37:32.218Z,70.67
2019-05-01T16:40:16.056Z,53.35
2019-05-01T16:42:44.602Z,48.83
2019-05-01T16:45:14.095Z,61.35
2019-05-01T16:47:42.681Z,68.90
2019-05-01T16:50:12.166Z,48.42
2019-05-01T16:52:40.787Z,65.03
2019-05-01T16:55:10.095Z,64.45
2019-05-01T16:57:38.643Z,53.73
2019-05-01T17:00:09.917Z,70.35
2019-05-01T17:02:52.450Z,47.95
2019-05-01T17:05:28.824Z,56.98
2019-05-01T17:08:15.398Z,64.00
2019-05-01T17:10:45.706Z,59.18
2019-05-01T17:13:14.242Z,48.05
2019-05-01T17:15:44.441Z,61.65
2019-05-01T17:18:14.072Z,63.10
2019-05-01T17:20:43.162Z,62.95
2019-05-01T17:23:11.815Z,67.15
2019-05-01T17:25:40.377Z,59.03
2019-05-01T17:28:09.497Z,67.42
2019-05-01T17:30:43.666Z,68.87
2019-05-01T17:33:20.125Z,49.05
2019-05-01T17:35:43.256Z,66.33
2019-05-01T17:38:12.036Z,63.95
2019-05-01T17:40:40.568Z,62.57
2019-05-01T17:43:13.319Z,55.05
2019-05-01T17:45:39.323Z,56.33
2019-05-01T17:48:08.175Z,67.78
2019-05-01T17:50:36.671Z,56.95
2019-05-01T17:53:05.324Z,70.67
2019-05-01T17:55:34.032Z,67.23
2019-05-01T17:58:02.517Z,61.85
2019-05-01T18:00:38.797Z,59.75
2019-05-01T18:03:09.303Z,65.35
2019-05-01T18:05:56.218Z,61.55
2019-05-01T18:08:25.912Z,55.08
2019-05-01T18:10:54.408Z,61.13
2019-05-01T18:13:23.691Z,55.10
2019-05-01T18:15:52.325Z,56.48
2019-05-01T18:18:20.909Z,58.40
2019-05-01T18:20:49.530Z,54.93
2019-05-01T18:23:22.360Z,60.43
2019-05-01T18:25:55.559Z,63.28
2019-05-01T18:28:34.622Z,60.03
2019-05-01T18:31:04.855Z,58.80
2019-05-01T18:33:33.380Z,60.58
2019-05-01T18:36:01.896Z,44.27
2019-05-01T18:38:32.431Z,56.55
2019-05-01T18:41:05.421Z,57.83
2019-05-01T18:43:34.021Z,56.03
2019-05-01T18:46:03.637Z,45.15
2019-05-01T18:48:32.300Z,57.10
2019-05-01T18:51:00.829Z,59.03
2019-05-01T18:53:29.456Z,53.25
2019-05-01T18:56:01.387Z,59.45
2019-05-01T18:58:28.356Z,56.25
2019-05-01T19:00:56.888Z,47.60
2019-05-01T19:03:25.410Z,54.08
2019-05-01T19:05:54.048Z,50.95
2019-05-01T19:08:22.589Z,53.90
2019-05-01T19:10:51.237Z,59.38
2019-05-01T19:13:19.845Z,49.85
2019-05-01T19:15:48.492Z,51.13
2019-05-01T19:18:17.065Z,50.75
2019-05-01T19:20:58.591Z,47.08
2019-05-01T19:23:16.019Z,43.23
2019-05-01T19:25:44.584Z,48.42
2019-05-01T19:28:13.136Z,49.55
2019-05-01T19:30:41.710Z,49.50
2019-05-01T19:33:10.186Z,53.50
2019-05-01T19:35:38.680Z,47.58
2019-05-01T19:38:07.733Z,47.53
2019-05-01T19:40:36.209Z,50.45
2019-05-01T19:43:04.974Z,43.75
2019-05-01T19:45:33.705Z,48.20
2019-05-01T19:48:02.330Z,45.65
2019-05-01T19:50:31.094Z,46.65
2019-05-01T19:52:59.600Z,47.35
2019-05-01T19:55:28.187Z,46.23
2019-05-01T19:57:56.784Z,43.63
2019-05-01T20:00:47.778Z,43.02
2019-05-01T20:03:16.369Z,47.67
2019-05-01T20:05:44.879Z,45.60
2019-05-01T20:08:13.547Z,44.40
2019-05-01T20:10:42.260Z,43.43
2019-05-01T20:13:12.267Z,41.70
2019-05-01T20:15:41.199Z,37.10
2019-05-01T20:18:09.904Z,38.17
2019-05-01T20:20:38.524Z,39.60
2019-05-01T20:23:07.085Z,37.13
2019-05-01T20:25:35.640Z,33.97
2019-05-01T20:28:04.373Z,36.80
2019-05-01T20:30:32.954Z,32.98
2019-05-01T20:33:02.167Z,29.40
2019-05-01T20:35:34.036Z,36.45
2019-05-01T20:38:01.297Z,36.73
2019-05-01T20:40:29.841Z,34.90
2019-05-01T20:43:01.120Z,33.98
2019-05-01T20:45:28.767Z,36.42
2019-05-01T20:47:57.307Z,35.23
2019-05-01T20:50:25.969Z,34.88
2019-05-01T20:52:54.459Z,39.70
2019-05-01T20:55:23.075Z,38.35
2019-05-01T20:57:51.583Z,39.90
2019-05-01T21:00:22.070Z,36.60
2019-05-01T21:02:50.614Z,40.45
2019-05-01T21:05:23.698Z,35.63
2019-05-01T21:08:12.254Z,39.30
2019-05-01T21:10:50.614Z,37.70
2019-05-01T21:13:17.734Z,39.53
2019-05-01T21:15:47.240Z,40.10
2019-05-01T21:18:16.136Z,36.58
2019-05-01T21:20:44.682Z,36.33
2019-05-01T21:23:14.340Z,37.93
2019-05-01T21:25:43.893Z,40.03
2019-05-01T21:28:14.169Z,39.73
2019-05-01T21:30:45.829Z,40.95
2019-05-01T21:33:13.926Z,44.27
2019-05-01T21:35:44.479Z,44.53
2019-05-01T21:38:13.056Z,46.47
2019-05-01T21:40:43.697Z,54.97
2019-05-01T21:43:13.623Z,45.88
2019-05-01T21:45:43.373Z,47.80
2019-05-01T21:48:13.405Z,47.05
2019-05-01T21:50:43.922Z,47.33
2019-05-01T21:53:12.835Z,49.83
2019-05-01T21:55:41.610Z,44.77
2019-05-01T21:58:10.269Z,49.47
2019-05-01T22:00:40.829Z,47.00
2019-05-01T22:03:09.854Z,53.68
2019-05-01T22:05:39.661Z,50.60
2019-05-01T22:08:08.827Z,51.05
2019-05-01T22:10:37.439Z,51.27
2019-05-01T22:13:06.680Z,52.53
2019-05-01T22:15:41.920Z,50.47
2019-05-01T22:18:11.679Z,52.73
2019-05-01T22:20:44.697Z,56.05
2019-05-01T22:23:21.994Z,60.30
2019-05-01T22:25:49.781Z,58.05
2019-05-01T22:28:25.915Z,63.27
2019-05-01T22:31:16.792Z,57.67
2019-05-01T22:33:45.910Z,64.37
2019-05-01T22:36:14.469Z,65.20
2019-05-01T22:38:43.222Z,62.20
2019-05-01T22:41:12.885Z,61.67
2019-05-01T22:43:41.524Z,62.73
2019-05-01T22:46:11.695Z,59.13
2019-05-01T22:48:40.315Z,66.30
2019-05-01T22:51:10.443Z,59.47
2019-05-01T22:53:38.992Z,62.30
2019-05-01T22:56:07.502Z,63.50
2019-05-01T22:58:35.977Z,65.13
2019-05-01T23:01:05.205Z,56.83
2019-05-01T23:03:41.112Z,62.27
2019-05-01T23:06:08.529Z,64.47
2019-05-01T23:08:37.061Z,65.27
2019-05-01T23:11:18.535Z,66.53
2019-05-01T23:13:35.893Z,65.57
2019-05-01T23:16:05.481Z,62.70
2019-05-01T23:18:34.213Z,65.20
2019-05-01T23:21:02.743Z,65.80
2019-05-01T23:23:31.219Z,66.73
2019-05-01T23:25:59.801Z,69.03
2019-05-01T23:28:28.345Z,65.63
2019-05-01T23:30:56.882Z,68.27
2019-05-01T23:33:25.386Z,67.00
2019-05-01T23:35:54.002Z,66.30
2019-05-01T23:38:22.551Z,70.37
2019-05-01T23:40:52.915Z,65.10
2019-05-01T23:43:23.005Z,62.00
2019-05-01T23:45:51.484Z,62.27
2019-05-01T23:48:20.059Z,64.43
2019-05-01T23:50:48.662Z,66.90
2019-05-01T23:53:17.169Z,60.10
2019-05-01T23:55:45.705Z,61.17
2019-05-01T23:58:14.650Z,67.17
